• Join FlightAware (Why Join?)
  • Login
  • US Flag 
06:03PM EDT


 

Airport Tracker/Info


-or-


 

Live Flight TrackerFlight Track Log ✈ CTL17 ✈ 29-Apr-2013 ✈ KYIP - KBKL

Flight Track Log - Related Links

Times and Time Zones

All times are in EDT time to prevent confusion due to time zone crossing. See the CTL17 flight status page for this flight to view local times or setup timezone preferences in your user account.

Time Position Orientation Groundspeed Altitude Reporting Facility
EDT Latitude Longitude Course Direction KTS MPH feet Rate Location/Type
05:34PM 42.2150 -83.5664 238° Southwest 123 142 1,500  Level Cleveland Center
05:35PM 42.1853 -83.5956 216° Southwest 135 155 2,200 660 Climbing Cleveland Center
05:36PM 42.1572 -83.6281 221° Southwest 146 168 2,800 420 Climbing Cleveland Center
05:37PM 42.1117 -83.6175 170° South 160 184 3,100 60 Climbing Cleveland Center
05:38PM 42.0681 -83.6042 167° South 168 193 3,000 -60 Descending Cleveland Center
05:39PM 42.0444 -83.5556 123° Southeast 170 196 3,000  Level Cleveland Center
05:40PM 42.0272 -83.4958 111° Southeast 174 200 3,100  Climbing Cleveland Center
05:41PM 42.0078 -83.4364 114° Southeast 175 201 3,000 -60 Descending Cleveland Center
05:42PM 41.9867 -83.3683 113° Southeast 176 203 3,000 60 Level Cleveland Center
05:43PM 41.9736 -83.3036 105° East 174 200 3,200 420 Climbing Cleveland Center
05:45PM 41.9542 -83.2386 112° Southeast 171 197 3,900 480 Climbing Cleveland Center
05:46PM 41.9369 -83.1792 111° Southeast 171 197 4,300 480 Climbing Cleveland Center
05:47PM 41.9214 -83.1172 109° East 169 194 4,900 360 Climbing Cleveland Center
05:48PM 41.9042 -83.0550 110° East 181 208 5,100 60 Climbing Cleveland Center
05:48PM 41.8942 -83.0297 118° Southeast 177 204 5,000 -120 Descending Cleveland Center
05:49PM 41.8706 -82.9617 115° Southeast 190 219 5,000  Level Cleveland Center
05:50PM 41.8553 -82.8914 106° East 179 206 5,000  Level Cleveland Center
05:51PM 41.8383 -82.8128 106° East 185 213 5,000  Level Cleveland Center
05:52PM 41.8228 -82.7425 107° East 183 211 5,000  Level Cleveland Center
05:53PM 41.8094 -82.6836 107° East 183 211 5,000  Level Cleveland Center
05:54PM 41.7958 -82.6192 106° East 182 209 5,100  Climbing Cleveland Center
05:55PM 41.7786 -82.5433 107° East 184 212 5,000 -60 Descending Cleveland Center
05:56PM 41.7650 -82.4789 106° East 184 212 5,000 -120 Level Cleveland Center
05:57PM 41.7575 -82.4314 102° East 184 212 4,800 -480 Descending Cleveland Center
05:58PM 41.7339 -82.3389 109° East 201 231 4,100 -540 Descending Cleveland Center
05:59PM 41.7183 -82.2689 107° East 196 226 3,700 -540 Descending Cleveland Center
06:01PM 41.7025 -82.2017 107° East 187 215 3,100 -420 Descending Cleveland Center
06:01PM 41.6908 -82.1431 105° East 186 214 3,000 -120 Descending Cleveland Center
06:02PM 41.6769 -82.0844 108° East 172 198 2,900 -300 Descending Cleveland Center
06:03PM 41.6550 -82.0200 114° Southeast 186 214 2,500 -240 Descending Cleveland Center
06:05PM 41.6328 -81.9556 115° Southeast 173 199 2,400 -240 Descending Cleveland Center
06:05PM 41.6125 -81.9106 121° Southeast 170 196 2,100 -300 Descending Cleveland Center
06:06PM 41.5922 -81.8631 120° Southeast 176 203 1,900 -240 Descending Cleveland Center
06:08PM 41.5617 -81.7931 120° Southeast 172 198 1,700 -180 Descending Cleveland Center
06:08PM 41.5372 -81.7483 126° Southeast 164 189 1,600 -360 Descending Cleveland Center
06:09PM 41.5061 -81.7117 139° Southeast 129 148 1,100 -540 Descending Cleveland Center
06:11PM 41.5175 -81.6833 108° East  Level Estimated
06:18PM 41.5175 -81.6833 108° East  Level Estimated